createdAt,value
2023-03-06T00:02:00.797Z,93264.47
2023-03-06T00:05:04.808Z,93265.78
2023-03-06T00:08:09.993Z,93261.00
2023-03-06T00:11:16.354Z,93262.13
2023-03-06T00:14:20.509Z,93266.91
2023-03-06T00:17:23.684Z,93268.47
2023-03-06T00:20:27.918Z,93266.97
2023-03-06T00:23:30.921Z,93267.66
2023-03-06T00:26:37.024Z,93254.25
2023-03-06T00:29:40.714Z,93256.41
2023-03-06T00:32:44.539Z,93253.06
2023-03-06T00:35:48.292Z,93257.97
2023-03-06T00:38:52.087Z,93255.94
2023-03-06T00:41:56.098Z,93257.41
2023-03-06T00:45:01.544Z,93261.47
2023-03-06T00:48:05.687Z,93258.03
2023-03-06T00:51:09.145Z,93258.19
2023-03-06T00:54:12.742Z,93263.16
2023-03-06T00:57:17.177Z,93254.00
2023-03-06T01:00:20.593Z,93261.97
2023-03-06T01:03:25.988Z,93260.19
2023-03-06T01:06:29.317Z,93257.81
2023-03-06T01:09:33.545Z,93259.22
2023-03-06T01:12:36.481Z,93250.59
2023-03-06T01:15:40.748Z,93251.59
2023-03-06T01:18:43.902Z,93244.59
2023-03-06T01:21:47.520Z,93247.66
2023-03-06T01:24:50.575Z,93241.31
2023-03-06T01:27:54.166Z,93240.88
2023-03-06T01:30:58.274Z,93242.66
2023-03-06T01:34:01.983Z,93231.88
2023-03-06T01:37:05.178Z,93220.78
2023-03-06T01:40:09.901Z,93223.81
2023-03-06T01:43:34.548Z,93231.56
2023-03-06T01:46:44.804Z,93235.88
2023-03-06T01:49:48.492Z,93212.81
2023-03-06T01:52:57.212Z,93213.38
2023-03-06T01:56:00.992Z,93208.22
2023-03-06T01:59:05.077Z,93205.03
2023-03-06T02:02:11.359Z,93202.84
2023-03-06T02:05:15.789Z,93190.13
2023-03-06T02:08:20.942Z,93196.09
2023-03-06T02:11:26.116Z,93181.81
2023-03-06T02:14:30.207Z,93183.69
2023-03-06T02:17:36.636Z,93180.25
2023-03-06T02:20:51.621Z,93173.25
2023-03-06T02:24:14.785Z,93165.91
2023-03-06T02:27:18.423Z,93166.78
2023-03-06T02:30:23.557Z,93159.00
2023-03-06T02:33:29.715Z,93155.81
2023-03-06T02:36:37.660Z,93156.00
2023-03-06T02:39:49.065Z,93151.97
2023-03-06T02:42:58.442Z,93138.59
2023-03-06T02:46:02.146Z,93122.47
2023-03-06T02:49:05.546Z,93139.31
2023-03-06T02:52:08.938Z,93122.53
2023-03-06T02:55:15.717Z,93112.94
2023-03-06T02:58:22.011Z,93114.28
2023-03-06T03:01:25.471Z,93114.59
2023-03-06T03:04:29.412Z,93100.56
2023-03-06T03:07:34.132Z,93097.09
2023-03-06T03:10:37.889Z,93099.44
2023-03-06T03:13:42.693Z,93087.94
2023-03-06T03:16:50.466Z,93089.22
2023-03-06T03:19:54.730Z,93082.75
2023-03-06T03:22:58.716Z,93065.78
2023-03-06T03:26:11.670Z,93057.59
2023-03-06T03:29:18.685Z,93051.09
2023-03-06T03:32:22.220Z,93060.44
2023-03-06T03:35:26.287Z,93056.53
2023-03-06T03:38:30.772Z,93051.16
2023-03-06T03:41:34.611Z,93043.09
2023-03-06T03:44:42.020Z,93034.88
2023-03-06T03:47:46.154Z,93031.03
2023-03-06T03:50:50.266Z,93026.25
2023-03-06T03:53:57.353Z,93018.50
2023-03-06T03:57:04.698Z,93010.41
2023-03-06T04:00:16.684Z,93010.88
2023-03-06T04:03:35.930Z,92995.53
2023-03-06T04:06:41.901Z,92996.91
2023-03-06T04:09:45.940Z,92982.72
2023-03-06T04:12:49.221Z,92982.81
2023-03-06T04:15:56.799Z,92976.75
2023-03-06T04:19:00.800Z,92972.16
2023-03-06T04:22:05.103Z,92966.63
2023-03-06T04:25:11.468Z,92967.53
2023-03-06T04:28:16.051Z,92967.41
2023-03-06T04:31:20.738Z,92961.28
2023-03-06T04:34:24.055Z,92950.84
2023-03-06T04:37:28.168Z,92955.50
2023-03-06T04:40:36.347Z,92949.44
2023-03-06T04:43:40.134Z,92951.25
2023-03-06T04:46:43.450Z,92949.41
2023-03-06T04:49:47.435Z,92936.31
2023-03-06T04:52:50.936Z,92940.75
2023-03-06T04:55:55.157Z,92932.13
2023-03-06T04:58:59.541Z,92913.31
2023-03-06T05:02:02.512Z,92908.00
2023-03-06T05:05:06.529Z,92904.16
2023-03-06T05:08:15.797Z,92890.66
2023-03-06T05:11:20.011Z,92873.13
2023-03-06T05:14:24.049Z,92869.97
2023-03-06T05:17:27.804Z,92865.13
2023-03-06T05:20:31.571Z,92861.84
2023-03-06T05:23:37.408Z,92860.13
2023-03-06T05:26:40.761Z,92866.81
2023-03-06T05:29:44.194Z,92849.09
2023-03-06T05:32:47.916Z,92844.31
2023-03-06T05:35:51.231Z,92835.19
2023-03-06T05:38:54.749Z,92838.66
2023-03-06T05:41:58.942Z,92833.59
2023-03-06T05:45:04.515Z,92825.59
2023-03-06T05:48:08.713Z,92820.81
2023-03-06T05:51:12.617Z,92825.41
2023-03-06T05:54:16.696Z,92819.06
2023-03-06T05:57:22.106Z,92801.97
2023-03-06T06:00:26.370Z,92807.41
2023-03-06T06:03:30.106Z,92792.31
2023-03-06T06:06:33.422Z,92792.78
2023-03-06T06:09:36.620Z,92794.03
2023-03-06T06:12:40.831Z,92792.50
2023-03-06T06:15:44.644Z,92788.78
2023-03-06T06:18:48.374Z,92784.06
2023-03-06T06:21:54.500Z,92778.56
2023-03-06T06:24:58.614Z,92774.47
2023-03-06T06:28:02.413Z,92778.28
2023-03-06T06:31:11.819Z,92774.88
2023-03-06T06:34:15.760Z,92773.75
2023-03-06T06:37:19.842Z,92776.53
2023-03-06T06:40:24.834Z,92765.09
2023-03-06T06:43:29.278Z,92759.41
2023-03-06T06:47:20.391Z,92773.66
2023-03-06T06:49:58.164Z,92756.66
2023-03-06T06:53:01.301Z,92760.84
2023-03-06T06:56:05.358Z,92749.38
2023-03-06T06:59:16.539Z,92749.81
2023-03-06T07:02:21.494Z,92739.69
2023-03-06T07:05:25.211Z,92746.47
2023-03-06T07:08:29.837Z,92748.38
2023-03-06T07:11:33.162Z,92747.16
2023-03-06T07:14:37.628Z,92736.88
2023-03-06T07:17:41.500Z,92725.09
2023-03-06T07:20:44.871Z,92724.47
2023-03-06T07:23:48.140Z,92719.28
2023-03-06T07:26:53.221Z,92712.97
2023-03-06T07:29:56.945Z,92700.22
2023-03-06T07:33:00.823Z,92706.88
2023-03-06T07:36:04.152Z,92695.78
2023-03-06T07:39:08.933Z,92693.53
2023-03-06T07:42:14.824Z,92697.13
2023-03-06T07:45:29.057Z,92680.34
2023-03-06T07:48:32.774Z,92669.47
2023-03-06T07:51:36.840Z,92679.56
2023-03-06T07:54:40.460Z,92677.03
2023-03-06T07:57:43.929Z,92674.56
2023-03-06T08:00:47.078Z,92663.06
2023-03-06T08:03:51.876Z,92656.69
2023-03-06T08:06:58.184Z,92657.13
2023-03-06T08:10:02.053Z,92651.47
2023-03-06T08:13:05.670Z,92654.66
2023-03-06T08:16:11.143Z,92650.34
2023-03-06T08:19:14.919Z,92650.94
2023-03-06T08:22:19.027Z,92641.53
2023-03-06T08:25:22.378Z,92641.91
2023-03-06T08:28:27.379Z,92642.47
2023-03-06T08:31:40.698Z,92638.06
2023-03-06T08:34:46.376Z,92629.56
2023-03-06T08:37:50.122Z,92609.13
2023-03-06T08:40:53.365Z,92616.81
2023-03-06T08:43:56.379Z,92599.88
2023-03-06T08:47:00.330Z,92601.25
2023-03-06T08:50:03.521Z,92602.31
2023-03-06T08:53:07.028Z,92595.00
2023-03-06T08:56:34.638Z,92595.94
2023-03-06T08:59:38.164Z,92602.44
2023-03-06T09:02:42.020Z,92597.28
2023-03-06T09:05:46.082Z,92598.44
2023-03-06T09:08:51.208Z,92582.84
2023-03-06T09:11:55.567Z,92578.59
2023-03-06T09:14:59.416Z,92573.63
2023-03-06T09:18:03.666Z,92559.81
2023-03-06T09:21:09.304Z,92566.16
2023-03-06T09:24:13.332Z,92566.59
2023-03-06T09:27:17.217Z,92563.78
2023-03-06T09:30:21.292Z,92568.88
2023-03-06T09:33:25.125Z,92569.00
2023-03-06T09:36:28.518Z,92557.66
2023-03-06T09:39:31.732Z,92558.94
2023-03-06T09:42:36.109Z,92554.28
2023-03-06T09:45:40.072Z,92540.06
2023-03-06T09:48:57.882Z,92549.16
2023-03-06T09:52:24.846Z,92541.25
2023-03-06T09:55:31.980Z,92529.28
2023-03-06T09:58:42.304Z,92525.28
2023-03-06T10:02:02.577Z,92509.66
2023-03-06T10:05:11.247Z,92514.38
2023-03-06T10:08:44.076Z,92515.13
2023-03-06T10:11:57.775Z,92510.28
2023-03-06T10:15:09.835Z,92507.72
2023-03-06T10:18:14.330Z,92502.28
2023-03-06T10:21:33.208Z,92502.38
2023-03-06T10:24:56.122Z,92495.06
2023-03-06T10:28:12.422Z,92483.78
2023-03-06T10:31:26.139Z,92480.47
2023-03-06T10:34:33.674Z,92468.88
2023-03-06T10:37:37.315Z,92467.59
2023-03-06T10:40:57.981Z,92479.56
2023-03-06T10:44:02.383Z,92477.44
2023-03-06T10:47:31.125Z,92482.78
2023-03-06T10:50:35.082Z,92476.91
2023-03-06T10:53:59.718Z,92471.66
2023-03-06T10:57:26.634Z,92475.56
2023-03-06T11:00:39.529Z,92469.88
2023-03-06T11:03:42.687Z,92469.63
2023-03-06T11:06:46.883Z,92483.66
2023-03-06T11:09:59.134Z,92487.03
2023-03-06T11:13:23.487Z,92478.97
2023-03-06T11:16:31.370Z,92483.66
2023-03-06T11:19:35.633Z,92475.22
2023-03-06T11:22:41.358Z,92475.81
2023-03-06T11:25:51.294Z,92468.63
2023-03-06T11:29:00.936Z,92470.03
2023-03-06T11:32:12.784Z,92456.81
2023-03-06T11:36:01.387Z,92466.06
2023-03-06T11:39:15.531Z,92469.81
2023-03-06T11:42:35.346Z,92459.44
2023-03-06T11:45:48.832Z,92450.25
2023-03-06T11:49:06.164Z,92457.06
2023-03-06T11:52:19.481Z,92451.03
2023-03-06T11:55:49.929Z,92461.47
2023-03-06T11:59:15.264Z,92452.81
2023-03-06T12:02:48.553Z,92451.47
2023-03-06T12:06:04.778Z,92438.00
2023-03-06T12:09:13.616Z,92390.09
2023-03-06T12:12:42.097Z,92428.16
2023-03-06T12:15:48.710Z,92416.66
2023-03-06T12:19:23.553Z,92417.22
2023-03-06T12:23:02.448Z,92409.91
2023-03-06T12:26:20.087Z,92404.19
2023-03-06T12:29:50.952Z,92389.94
2023-03-06T12:33:03.388Z,92396.63
2023-03-06T12:36:22.132Z,92377.47
2023-03-06T12:40:11.824Z,92383.84
2023-03-06T12:43:33.933Z,92377.03
2023-03-06T12:46:47.785Z,92381.28
2023-03-06T12:50:04.673Z,92366.78
2023-03-06T12:53:16.395Z,92358.38
2023-03-06T12:56:22.423Z,92351.91
2023-03-06T12:59:45.105Z,92355.31
2023-03-06T13:03:06.066Z,92351.91
2023-03-06T13:06:44.944Z,92372.28
2023-03-06T13:09:57.273Z,92372.72
2023-03-06T13:13:22.457Z,92361.72
2023-03-06T13:16:34.867Z,92359.84
2023-03-06T13:19:38.696Z,92344.47
2023-03-06T13:22:44.521Z,92355.84
2023-03-06T13:25:50.317Z,92359.50
2023-03-06T13:28:56.030Z,92353.22
2023-03-06T13:32:02.919Z,92350.91
2023-03-06T13:35:34.514Z,92357.38
2023-03-06T13:38:54.899Z,92359.31
2023-03-06T13:42:00.342Z,92347.88
2023-03-06T13:45:16.535Z,92354.50
2023-03-06T13:48:44.248Z,92342.44
2023-03-06T13:51:54.568Z,92339.81
2023-03-06T13:55:23.461Z,92330.25
2023-03-06T13:58:56.899Z,92336.78
2023-03-06T14:02:41.844Z,92336.44
2023-03-06T14:05:51.124Z,92343.16
2023-03-06T14:08:55.088Z,92340.09
2023-03-06T14:12:07.415Z,92337.22
2023-03-06T14:15:37.972Z,92331.72
2023-03-06T14:18:47.019Z,92327.72
2023-03-06T14:21:58.185Z,92328.16
2023-03-06T14:25:06.291Z,92333.84
2023-03-06T14:28:31.967Z,92334.59
2023-03-06T14:31:41.738Z,92332.56
2023-03-06T14:34:47.705Z,92324.84
2023-03-06T14:37:54.766Z,92314.50
2023-03-06T14:40:58.949Z,92320.50
2023-03-06T14:44:27.085Z,92323.06
2023-03-06T14:47:36.462Z,92320.59
2023-03-06T14:50:41.089Z,92329.19
2023-03-06T14:53:49.070Z,92331.81
2023-03-06T14:56:57.412Z,92338.50
2023-03-06T15:00:01.353Z,92335.19
2023-03-06T15:03:13.541Z,92334.16
2023-03-06T15:06:23.586Z,92345.72
2023-03-06T15:09:36.576Z,92339.03
2023-03-06T15:12:40.096Z,92339.09
2023-03-06T15:15:43.202Z,92330.78
2023-03-06T15:19:05.151Z,92334.84
2023-03-06T15:22:21.666Z,92334.44
2023-03-06T15:25:34.048Z,92334.88
2023-03-06T15:28:40.104Z,92339.69
2023-03-06T15:31:46.594Z,92339.03
2023-03-06T15:35:25.238Z,92336.03
2023-03-06T15:38:34.939Z,92334.69
2023-03-06T15:41:39.614Z,92335.53
2023-03-06T15:44:43.630Z,92340.09
2023-03-06T15:47:49.263Z,92340.97
2023-03-06T15:50:53.474Z,92340.28
2023-03-06T15:54:09.775Z,92351.63
2023-03-06T15:57:27.029Z,92339.78
2023-03-06T16:00:36.110Z,92338.06
2023-03-06T16:03:39.387Z,92337.81
2023-03-06T16:06:45.364Z,92337.91
2023-03-06T16:09:49.820Z,92337.75
2023-03-06T16:13:00.400Z,92334.44
2023-03-06T16:16:04.114Z,92327.16
2023-03-06T16:19:25.267Z,92329.78
2023-03-06T16:22:33.501Z,92329.63
2023-03-06T16:25:42.881Z,92320.28
2023-03-06T16:28:47.621Z,92314.84
2023-03-06T16:31:51.101Z,92318.56
2023-03-06T16:34:54.312Z,92327.03
2023-03-06T16:37:59.367Z,92333.34
2023-03-06T16:41:03.069Z,92321.72
2023-03-06T16:44:08.440Z,92326.16
2023-03-06T16:47:13.312Z,92326.84
2023-03-06T16:50:23.316Z,92334.56
2023-03-06T16:53:27.100Z,92327.88
2023-03-06T16:56:30.933Z,92336.69
2023-03-06T16:59:34.825Z,92342.44
2023-03-06T17:02:41.226Z,92339.06
2023-03-06T17:05:45.425Z,92343.53
2023-03-06T17:08:50.787Z,92352.56
2023-03-06T17:11:54.906Z,92353.66
2023-03-06T17:14:59.113Z,92362.81
2023-03-06T17:18:02.616Z,92360.88
2023-03-06T17:21:08.206Z,92360.56
2023-03-06T17:24:12.474Z,92368.44
2023-03-06T17:27:15.590Z,92370.28
2023-03-06T17:30:18.672Z,92366.63
2023-03-06T17:33:22.447Z,92365.78
2023-03-06T17:36:26.489Z,92376.06
2023-03-06T17:39:34.993Z,92376.56
2023-03-06T17:42:42.656Z,92386.16
2023-03-06T17:45:47.977Z,92395.31
2023-03-06T17:48:51.884Z,92395.81
2023-03-06T17:51:58.524Z,92388.31
2023-03-06T17:55:02.522Z,92404.75
2023-03-06T17:58:05.630Z,92409.72
2023-03-06T18:01:21.405Z,92414.28
2023-03-06T18:04:24.980Z,92413.22
2023-03-06T18:07:29.208Z,92413.22
2023-03-06T18:10:32.905Z,92411.16
2023-03-06T18:13:39.487Z,92412.03
2023-03-06T18:16:43.295Z,92414.94
2023-03-06T18:19:47.152Z,92419.03
2023-03-06T18:22:50.973Z,92423.97
2023-03-06T18:26:06.143Z,92413.88
2023-03-06T18:29:11.263Z,92403.63
2023-03-06T18:32:15.550Z,92409.25
2023-03-06T18:35:20.094Z,92419.06
2023-03-06T18:38:24.314Z,92420.69
2023-03-06T18:41:28.051Z,92431.25
2023-03-06T18:44:31.446Z,92426.59
2023-03-06T18:47:35.383Z,92429.31
2023-03-06T18:50:38.857Z,92429.63
2023-03-06T18:53:43.082Z,92438.72
2023-03-06T18:56:47.206Z,92437.56
2023-03-06T18:59:50.686Z,92440.97
2023-03-06T19:02:54.369Z,92437.75
2023-03-06T19:05:59.685Z,92461.72
2023-03-06T19:09:03.478Z,92449.22
2023-03-06T19:12:07.707Z,92451.34
2023-03-06T19:15:11.416Z,92453.88
2023-03-06T19:18:18.031Z,92459.56
2023-03-06T19:21:23.623Z,92458.59
2023-03-06T19:24:27.569Z,92459.72
2023-03-06T19:27:32.127Z,92462.03
2023-03-06T19:30:36.326Z,92462.53
2023-03-06T19:33:41.169Z,92471.41
2023-03-06T19:36:45.455Z,92479.38
2023-03-06T19:39:49.194Z,92478.09
2023-03-06T19:42:52.982Z,92482.56
2023-03-06T19:45:57.281Z,92487.47
2023-03-06T19:49:06.244Z,92493.28
2023-03-06T19:52:09.506Z,92492.47
2023-03-06T19:55:13.597Z,92503.63
2023-03-06T19:58:16.989Z,92513.50
2023-03-06T20:01:23.379Z,92506.66
2023-03-06T20:04:27.214Z,92507.34
2023-03-06T20:07:30.607Z,92511.94
2023-03-06T20:10:38.833Z,92515.44
2023-03-06T20:13:47.186Z,92509.38
2023-03-06T20:16:50.797Z,92511.91
2023-03-06T20:19:55.100Z,92511.81
2023-03-06T20:23:03.028Z,92521.50
2023-03-06T20:26:12.532Z,92527.75
2023-03-06T20:29:16.019Z,92527.44
2023-03-06T20:32:20.033Z,92535.63
2023-03-06T20:35:23.638Z,92537.34
2023-03-06T20:38:27.898Z,92543.97
2023-03-06T20:41:32.763Z,92545.38
2023-03-06T20:44:36.835Z,92543.41
2023-03-06T20:47:39.881Z,92556.38
2023-03-06T20:50:42.929Z,92569.72
2023-03-06T20:53:50.756Z,92575.38
2023-03-06T20:56:53.869Z,92575.72
2023-03-06T20:59:57.973Z,92584.25
2023-03-06T21:03:01.009Z,92589.97
2023-03-06T21:06:04.341Z,92584.13
2023-03-06T21:09:07.999Z,92600.06
2023-03-06T21:12:11.556Z,92607.31
2023-03-06T21:15:15.308Z,92619.50
2023-03-06T21:18:19.429Z,92630.66
2023-03-06T21:21:25.938Z,92624.84
2023-03-06T21:24:29.206Z,92634.63
2023-03-06T21:27:32.952Z,92645.66
2023-03-06T21:30:35.956Z,92654.78
2023-03-06T21:33:40.402Z,92660.00
2023-03-06T21:36:44.102Z,92658.06
2023-03-06T21:39:47.897Z,92667.00
2023-03-06T21:42:51.546Z,92684.94
2023-03-06T21:45:58.742Z,92678.94
2023-03-06T21:49:04.671Z,92686.41
2023-03-06T21:52:08.673Z,92695.56
2023-03-06T21:55:12.446Z,92694.88
2023-03-06T21:58:16.200Z,92699.47
2023-03-06T22:01:23.085Z,92707.50
2023-03-06T22:04:26.570Z,92717.88
2023-03-06T22:07:29.783Z,92718.44
2023-03-06T22:10:33.848Z,92734.34
2023-03-06T22:13:38.809Z,92736.53
2023-03-06T22:16:42.434Z,92739.72
2023-03-06T22:19:46.198Z,92744.06
2023-03-06T22:22:50.344Z,92739.78
2023-03-06T22:25:53.824Z,92751.16
2023-03-06T22:28:58.609Z,92758.44
2023-03-06T22:32:02.032Z,92759.56
2023-03-06T22:35:06.449Z,92765.81
2023-03-06T22:38:10.209Z,92761.00
2023-03-06T22:41:17.315Z,92764.81
2023-03-06T22:44:20.615Z,92770.03
2023-03-06T22:47:23.638Z,92772.56
2023-03-06T22:50:26.844Z,92770.44
2023-03-06T22:53:31.108Z,92790.13
2023-03-06T22:56:34.992Z,92794.66
2023-03-06T22:59:39.178Z,92798.53
2023-03-06T23:02:42.938Z,92798.97
2023-03-06T23:05:46.046Z,92788.19
2023-03-06T23:08:55.063Z,92806.84
2023-03-06T23:11:58.636Z,92809.13
2023-03-06T23:15:20.403Z,92817.53
2023-03-06T23:18:42.659Z,92827.63
2023-03-06T23:22:04.963Z,92826.03
2023-03-06T23:25:27.758Z,92844.97
2023-03-06T23:28:31.264Z,92845.66
2023-03-06T23:31:34.259Z,92838.03
2023-03-06T23:34:37.246Z,92845.69
2023-03-06T23:37:40.610Z,92844.31
2023-03-06T23:40:44.469Z,92852.69
2023-03-06T23:43:49.665Z,92856.72
2023-03-06T23:46:53.677Z,92851.84
2023-03-06T23:49:57.643Z,92863.00
2023-03-06T23:53:00.710Z,92868.84
2023-03-06T23:56:07.260Z,92871.66
2023-03-06T23:59:11.881Z,92877.16
